createdAt,value
2019-06-27T00:01:39.461Z,12.40
2019-06-27T00:04:09.029Z,8.97
2019-06-27T00:06:39.092Z,8.53
2019-06-27T00:09:11.172Z,9.87
2019-06-27T00:11:40.579Z,9.00
2019-06-27T00:14:10.018Z,7.90
2019-06-27T00:16:39.464Z,14.17
2019-06-27T00:19:09.268Z,8.53
2019-06-27T00:21:39.262Z,8.88
2019-06-27T00:24:09.233Z,11.78
2019-06-27T00:26:39.275Z,8.95
2019-06-27T00:29:09.362Z,11.00
2019-06-27T00:31:39.262Z,8.80
2019-06-27T00:34:09.336Z,13.23
2019-06-27T00:36:39.315Z,11.10
2019-06-27T00:39:09.362Z,9.60
2019-06-27T00:41:39.401Z,9.47
2019-06-27T00:44:09.420Z,10.50
2019-06-27T00:46:39.514Z,10.07
2019-06-27T00:49:10.063Z,8.83
2019-06-27T00:51:39.603Z,15.20
2019-06-27T00:54:09.569Z,12.80
2019-06-27T00:56:39.660Z,14.03
2019-06-27T00:59:09.624Z,10.77
2019-06-27T01:01:39.671Z,9.70
2019-06-27T01:04:09.690Z,9.77
2019-06-27T01:06:39.818Z,13.22
2019-06-27T01:09:09.861Z,10.72
2019-06-27T01:11:39.799Z,14.57
2019-06-27T01:14:09.908Z,9.68
2019-06-27T01:16:39.915Z,10.07
2019-06-27T01:19:10.319Z,10.73
2019-06-27T01:21:40.138Z,10.10
2019-06-27T01:24:09.940Z,8.80
2019-06-27T01:26:39.958Z,10.50
2019-06-27T01:29:12.947Z,10.53
2019-06-27T01:31:42.362Z,11.00
2019-06-27T01:34:11.774Z,10.80
2019-06-27T01:36:41.160Z,10.67
2019-06-27T01:39:10.550Z,11.90
2019-06-27T01:41:40.211Z,9.50
2019-06-27T01:44:29.121Z,13.78
2019-06-27T01:46:58.781Z,14.40
2019-06-27T01:49:28.189Z,12.40
2019-06-27T01:51:57.642Z,11.60
2019-06-27T01:54:27.014Z,12.07
2019-06-27T01:56:56.488Z,8.73
2019-06-27T01:59:25.869Z,10.70
2019-06-27T02:01:55.234Z,10.07
2019-06-27T02:04:24.664Z,10.82
2019-06-27T02:06:54.034Z,11.43
2019-06-27T02:09:23.421Z,12.67
2019-06-27T02:11:52.838Z,15.57
2019-06-27T02:14:22.198Z,14.78
2019-06-27T02:16:51.611Z,13.27
2019-06-27T02:19:21.356Z,13.07
2019-06-27T02:21:50.791Z,18.43
2019-06-27T02:24:20.189Z,15.70
2019-06-27T02:26:49.624Z,15.13
2019-06-27T02:29:18.990Z,20.87
2019-06-27T02:31:48.386Z,13.70
2019-06-27T02:34:17.738Z,13.63
2019-06-27T02:36:47.155Z,10.98
2019-06-27T02:39:16.558Z,11.30
2019-06-27T02:41:45.885Z,9.97
2019-06-27T02:44:15.279Z,15.23
2019-06-27T02:46:44.690Z,14.60
2019-06-27T02:49:14.080Z,12.13
2019-06-27T02:51:43.469Z,15.77
2019-06-27T02:54:12.884Z,15.03
2019-06-27T02:56:42.309Z,11.10
2019-06-27T02:59:11.695Z,16.77
2019-06-27T03:01:41.113Z,16.30
2019-06-27T03:04:11.167Z,14.57
2019-06-27T03:06:41.139Z,13.25
2019-06-27T03:09:11.295Z,13.00
2019-06-27T03:11:41.285Z,12.83
2019-06-27T03:14:11.407Z,13.38
2019-06-27T03:16:41.416Z,12.60
2019-06-27T03:19:11.431Z,12.70
2019-06-27T03:21:41.404Z,14.13
2019-06-27T03:24:11.460Z,12.83
2019-06-27T03:26:41.497Z,17.98
2019-06-27T03:29:11.433Z,17.60
2019-06-27T03:31:41.525Z,13.87
2019-06-27T03:34:11.555Z,13.43
2019-06-27T03:36:41.753Z,13.18
2019-06-27T03:39:11.711Z,12.13
2019-06-27T03:41:42.028Z,10.98
2019-06-27T03:44:11.734Z,11.93
2019-06-27T03:46:41.712Z,11.33
2019-06-27T03:49:11.715Z,11.37
2019-06-27T03:51:41.778Z,9.17
2019-06-27T03:54:11.868Z,10.67
2019-06-27T03:56:41.959Z,9.80
2019-06-27T03:59:13.588Z,14.23
2019-06-27T04:01:43.253Z,12.53
2019-06-27T04:04:12.696Z,12.90
2019-06-27T04:06:42.077Z,13.37
2019-06-27T04:09:12.089Z,14.30
2019-06-27T04:11:42.091Z,12.50
2019-06-27T04:14:12.186Z,10.33
2019-06-27T04:16:42.207Z,12.07
2019-06-27T04:19:12.257Z,13.17
2019-06-27T04:21:42.188Z,15.23
2019-06-27T04:24:12.284Z,14.03
2019-06-27T04:26:42.331Z,15.58
2019-06-27T04:29:32.083Z,13.67
2019-06-27T04:31:43.526Z,10.13
2019-06-27T04:34:12.783Z,17.70
2019-06-27T04:36:42.449Z,15.68
2019-06-27T04:39:12.530Z,13.97
2019-06-27T04:41:42.506Z,11.50
2019-06-27T04:44:12.455Z,15.97
2019-06-27T04:46:42.827Z,16.95
2019-06-27T04:49:13.803Z,13.80
2019-06-27T04:51:43.526Z,16.27
2019-06-27T04:54:12.977Z,16.03
2019-06-27T04:56:42.578Z,17.87
2019-06-27T04:59:12.688Z,13.70
2019-06-27T05:01:42.675Z,15.38
2019-06-27T05:04:12.719Z,14.57
2019-06-27T05:06:42.730Z,12.90
2019-06-27T05:09:12.677Z,10.30
2019-06-27T05:11:42.846Z,11.97
2019-06-27T05:14:12.861Z,16.07
2019-06-27T05:16:42.892Z,17.73
2019-06-27T05:19:12.950Z,11.93
2019-06-27T05:21:42.958Z,16.10
2019-06-27T05:24:13.030Z,12.83
2019-06-27T05:26:43.008Z,18.87
2019-06-27T05:29:12.994Z,15.77
2019-06-27T05:31:43.000Z,15.67
2019-06-27T05:34:13.177Z,13.80
2019-06-27T05:36:43.239Z,23.75
2019-06-27T05:39:13.263Z,21.17
2019-06-27T05:41:43.151Z,20.57
2019-06-27T05:44:13.213Z,19.50
2019-06-27T05:46:43.232Z,22.70
2019-06-27T05:49:13.349Z,17.73
2019-06-27T05:51:43.324Z,16.93
2019-06-27T05:54:13.360Z,19.20
2019-06-27T05:56:43.413Z,22.62
2019-06-27T05:59:13.498Z,23.87
2019-06-27T06:01:43.462Z,19.20
2019-06-27T06:04:13.512Z,17.00
2019-06-27T06:06:43.482Z,20.87
2019-06-27T06:09:13.637Z,16.20
2019-06-27T06:11:43.549Z,21.55
2019-06-27T06:14:13.542Z,16.80
2019-06-27T06:16:43.598Z,14.63
2019-06-27T06:19:13.692Z,13.73
2019-06-27T06:21:43.731Z,15.88
2019-06-27T06:24:13.736Z,14.53
2019-06-27T06:26:43.793Z,17.53
2019-06-27T06:29:13.940Z,15.65
2019-06-27T06:31:49.073Z,13.43
2019-06-27T06:34:17.159Z,15.70
2019-06-27T06:36:46.593Z,20.27
2019-06-27T06:39:16.037Z,14.13
2019-06-27T06:41:45.451Z,13.63
2019-06-27T06:44:14.868Z,11.22
2019-06-27T06:46:44.280Z,13.13
2019-06-27T06:49:14.038Z,12.97
2019-06-27T06:51:44.027Z,16.57
2019-06-27T06:54:14.068Z,16.03
2019-06-27T06:56:44.597Z,14.73
2019-06-27T06:59:14.519Z,13.40
2019-06-27T07:01:45.771Z,8.10
2019-06-27T07:04:15.372Z,13.20
2019-06-27T07:06:44.760Z,12.93
2019-06-27T07:09:14.580Z,13.10
2019-06-27T07:11:44.697Z,13.62
2019-06-27T07:14:14.586Z,14.70
2019-06-27T07:16:44.738Z,19.60
2019-06-27T07:19:14.718Z,12.35
2019-06-27T07:21:44.768Z,14.33
2019-06-27T07:24:14.788Z,10.60
2019-06-27T07:26:44.853Z,10.08
2019-06-27T07:29:14.832Z,12.63
2019-06-27T07:31:44.848Z,11.30
2019-06-27T07:34:14.887Z,13.77
2019-06-27T07:36:44.865Z,13.73
2019-06-27T07:39:14.890Z,12.77
2019-06-27T07:41:44.905Z,12.40
2019-06-27T07:44:14.972Z,8.93
2019-06-27T07:46:45.117Z,11.50
2019-06-27T07:49:15.127Z,12.20
2019-06-27T07:51:45.030Z,12.13
2019-06-27T07:54:15.136Z,16.30
2019-06-27T07:56:46.293Z,12.03
2019-06-27T07:59:15.997Z,16.40
2019-06-27T08:01:45.461Z,12.90
2019-06-27T08:04:15.303Z,10.40
2019-06-27T08:06:45.605Z,10.60
2019-06-27T08:09:15.376Z,9.73
2019-06-27T08:11:45.446Z,14.10
2019-06-27T08:14:15.291Z,13.03
2019-06-27T08:16:45.399Z,10.70
2019-06-27T08:19:15.563Z,9.53
2019-06-27T08:21:45.398Z,8.03
2019-06-27T08:24:15.490Z,10.68
2019-06-27T08:26:45.478Z,13.72
2019-06-27T08:29:15.468Z,9.97
2019-06-27T08:31:51.255Z,8.50
2019-06-27T08:34:16.751Z,8.30
2019-06-27T08:36:46.118Z,8.87
2019-06-27T08:39:15.605Z,8.63
2019-06-27T08:41:45.634Z,11.05
2019-06-27T08:44:15.691Z,10.72
2019-06-27T08:46:45.796Z,9.00
2019-06-27T08:49:15.670Z,9.58
2019-06-27T08:51:45.837Z,12.70
2019-06-27T08:54:15.713Z,12.15
2019-06-27T08:56:45.771Z,9.35
2019-06-27T08:59:15.926Z,8.66
2019-06-27T09:01:45.959Z,9.42
2019-06-27T09:04:15.842Z,9.73
2019-06-27T09:06:46.049Z,13.16
2019-06-27T09:09:16.033Z,10.14
2019-06-27T09:11:46.075Z,9.18
2019-06-27T09:14:16.112Z,7.45
2019-06-27T09:16:46.886Z,11.50
2019-06-27T09:19:16.431Z,11.48
2019-06-27T09:21:46.144Z,11.03
2019-06-27T09:24:16.206Z,11.33
2019-06-27T09:26:46.152Z,11.43
2019-06-27T09:29:16.425Z,9.15
2019-06-27T09:31:46.198Z,10.53
2019-06-27T09:34:16.247Z,9.45
2019-06-27T09:36:46.242Z,8.13
2019-06-27T09:39:16.463Z,8.35
2019-06-27T09:41:46.355Z,8.13
2019-06-27T09:44:16.437Z,10.80
2019-06-27T09:46:46.606Z,9.42
2019-06-27T09:49:16.597Z,8.25
2019-06-27T09:51:46.636Z,10.28
2019-06-27T09:54:17.718Z,7.45
2019-06-27T09:56:47.097Z,9.33
2019-06-27T09:59:16.914Z,10.02
2019-06-27T10:01:46.813Z,11.18
2019-06-27T10:04:16.831Z,20.50
2019-06-27T10:06:46.962Z,9.68
2019-06-27T10:09:16.822Z,11.00
2019-06-27T10:11:47.022Z,6.72
2019-06-27T10:14:16.923Z,11.78
2019-06-27T10:16:47.197Z,9.12
2019-06-27T10:19:17.167Z,11.00
2019-06-27T10:21:47.351Z,8.70
2019-06-27T10:24:17.295Z,10.40
2019-06-27T10:26:47.509Z,9.53
2019-06-27T10:29:18.171Z,11.94
2019-06-27T10:31:48.129Z,8.08
2019-06-27T10:34:17.472Z,8.73
2019-06-27T10:36:47.473Z,8.10
2019-06-27T10:39:17.422Z,10.20
2019-06-27T10:41:47.430Z,7.25
2019-06-27T10:44:17.405Z,14.05
2019-06-27T10:46:47.501Z,9.90
2019-06-27T10:49:17.445Z,9.80
2019-06-27T10:51:47.461Z,10.30
2019-06-27T10:54:17.530Z,12.65
2019-06-27T10:56:48.449Z,9.43
2019-06-27T10:59:17.807Z,12.88
2019-06-27T11:01:47.602Z,11.48
2019-06-27T11:04:17.785Z,9.78
2019-06-27T11:06:47.871Z,8.18
2019-06-27T11:09:17.743Z,9.20
2019-06-27T11:11:47.771Z,5.20
2019-06-27T11:14:19.206Z,7.47
2019-06-27T11:16:48.776Z,11.48
2019-06-27T11:19:18.187Z,12.18
2019-06-27T11:21:48.187Z,13.48
2019-06-27T11:24:18.200Z,7.53
2019-06-27T11:26:48.640Z,15.28
2019-06-27T11:29:18.268Z,9.28
2019-06-27T11:31:48.235Z,7.10
2019-06-27T11:34:19.391Z,7.40
2019-06-27T11:36:48.843Z,7.97
2019-06-27T11:39:18.787Z,8.93
2019-06-27T11:41:48.713Z,12.03
2019-06-27T11:44:18.717Z,9.55
2019-06-27T11:46:48.954Z,12.35
2019-06-27T11:49:18.897Z,6.65
2019-06-27T11:51:48.913Z,7.58
2019-06-27T11:54:18.885Z,6.65
2019-06-27T11:56:49.014Z,5.04
2019-06-27T11:59:18.961Z,10.63
2019-06-27T12:01:48.975Z,9.15
2019-06-27T12:04:18.965Z,7.12
2019-06-27T12:06:48.977Z,7.35
2019-06-27T12:09:19.134Z,7.00
2019-06-27T12:11:49.078Z,7.50
2019-06-27T12:14:19.130Z,9.65
2019-06-27T12:16:49.441Z,11.90
2019-06-27T12:19:19.276Z,8.36
2019-06-27T12:21:49.832Z,11.02
2019-06-27T12:24:19.346Z,8.67
2019-06-27T12:26:49.214Z,5.72
2019-06-27T12:29:19.354Z,6.67
2019-06-27T12:31:51.679Z,6.25
2019-06-27T12:34:20.672Z,8.43
2019-06-27T12:36:50.141Z,10.58
2019-06-27T12:39:19.603Z,8.08
2019-06-27T12:41:49.864Z,7.90
2019-06-27T12:44:19.961Z,10.10
2019-06-27T12:46:49.467Z,8.00
2019-06-27T12:49:19.980Z,9.98
2019-06-27T12:51:49.778Z,4.90
2019-06-27T12:54:19.730Z,10.18
2019-06-27T12:56:49.653Z,11.93
2019-06-27T12:59:19.760Z,10.05
2019-06-27T13:01:49.776Z,5.72
2019-06-27T13:04:23.861Z,7.05
2019-06-27T13:06:51.947Z,6.50
2019-06-27T13:09:22.875Z,8.03
2019-06-27T13:11:52.313Z,8.20
2019-06-27T13:14:21.726Z,8.93
2019-06-27T13:16:52.407Z,6.53
2019-06-27T13:19:21.775Z,6.03
2019-06-27T13:21:51.173Z,5.92
2019-06-27T13:24:20.535Z,6.20
2019-06-27T13:26:50.303Z,7.30
2019-06-27T13:29:20.344Z,5.20
2019-06-27T13:31:50.292Z,4.25
2019-06-27T13:34:20.320Z,8.33
2019-06-27T13:36:52.596Z,5.37
2019-06-27T13:39:22.044Z,8.60
2019-06-27T13:41:51.507Z,7.42
2019-06-27T13:44:20.930Z,9.40
2019-06-27T13:46:50.432Z,4.03
2019-06-27T13:49:20.398Z,3.98
2019-06-27T13:51:50.394Z,6.97
2019-06-27T13:54:20.462Z,7.20
2019-06-27T13:56:50.495Z,9.85
2019-06-27T13:59:20.464Z,7.30
2019-06-27T14:01:50.389Z,4.28
2019-06-27T14:04:24.136Z,8.18
2019-06-27T14:06:53.117Z,9.25
2019-06-27T14:09:23.884Z,5.60
2019-06-27T14:11:53.534Z,9.90
2019-06-27T14:14:23.059Z,4.62
2019-06-27T14:16:54.323Z,5.50
2019-06-27T14:19:23.729Z,6.37
2019-06-27T14:21:53.536Z,9.50
2019-06-27T14:24:22.951Z,7.83
2019-06-27T14:26:52.326Z,7.62
2019-06-27T14:29:21.754Z,10.58
2019-06-27T14:31:51.171Z,3.17
2019-06-27T14:34:20.852Z,7.72
2019-06-27T14:36:54.213Z,8.53
2019-06-27T14:39:22.188Z,5.05
2019-06-27T14:41:51.659Z,6.08
2019-06-27T14:44:21.099Z,7.08
2019-06-27T14:46:51.143Z,6.75
2019-06-27T14:49:21.078Z,5.28
2019-06-27T14:51:51.177Z,3.25
2019-06-27T14:54:21.441Z,6.55
2019-06-27T14:56:51.441Z,8.88
2019-06-27T14:59:22.757Z,5.53
2019-06-27T15:01:52.205Z,5.35
2019-06-27T15:04:21.666Z,5.87
2019-06-27T15:06:51.736Z,8.28
2019-06-27T15:09:21.679Z,6.35
2019-06-27T15:11:51.808Z,4.17
2019-06-27T15:14:21.780Z,6.87
2019-06-27T15:16:51.901Z,8.38
2019-06-27T15:19:21.817Z,15.25
2019-06-27T15:21:51.952Z,7.92
2019-06-27T15:24:21.976Z,14.98
2019-06-27T15:26:51.945Z,5.28
2019-06-27T15:29:22.067Z,5.90
2019-06-27T15:31:52.044Z,4.37
2019-06-27T15:34:22.061Z,4.55
2019-06-27T15:36:52.106Z,6.33
2019-06-27T15:39:22.112Z,5.40
2019-06-27T15:41:54.177Z,6.10
2019-06-27T15:44:23.683Z,10.53
2019-06-27T15:46:54.493Z,7.70
2019-06-27T15:49:24.309Z,6.25
2019-06-27T15:51:53.732Z,4.12
2019-06-27T15:54:23.478Z,16.77
2019-06-27T15:56:53.256Z,5.70
2019-06-27T15:59:22.645Z,7.35
2019-06-27T16:01:52.381Z,8.03
2019-06-27T16:04:32.344Z,8.48
2019-06-27T16:07:04.018Z,5.58
2019-06-27T16:09:33.466Z,10.60
2019-06-27T16:12:02.985Z,5.33
2019-06-27T16:14:32.360Z,8.33
2019-06-27T16:17:01.834Z,18.77
2019-06-27T16:19:31.296Z,5.45
2019-06-27T16:22:00.744Z,4.85
2019-06-27T16:24:30.582Z,6.77
2019-06-27T16:27:00.095Z,6.50
2019-06-27T16:29:29.695Z,4.35
2019-06-27T16:32:00.285Z,16.40
2019-06-27T16:34:29.783Z,4.53
2019-06-27T16:36:59.244Z,14.00
2019-06-27T16:39:28.700Z,8.55
2019-06-27T16:41:58.090Z,14.35
2019-06-27T16:44:27.496Z,9.72
2019-06-27T16:46:56.942Z,5.03
2019-06-27T16:49:28.141Z,6.83
2019-06-27T16:51:59.943Z,5.10
2019-06-27T16:54:29.415Z,22.13
2019-06-27T16:56:58.883Z,8.55
2019-06-27T16:59:28.278Z,10.66
2019-06-27T17:01:57.751Z,10.80
2019-06-27T17:04:27.195Z,6.70
2019-06-27T17:06:56.565Z,5.28
2019-06-27T17:09:26.003Z,11.50
2019-06-27T17:11:55.400Z,7.15
2019-06-27T17:14:28.012Z,6.45
2019-06-27T17:16:57.560Z,8.25
2019-06-27T17:19:27.062Z,7.25
2019-06-27T17:21:56.604Z,5.75
2019-06-27T17:24:26.004Z,7.08
2019-06-27T17:26:55.439Z,5.92
2019-06-27T17:29:24.871Z,11.43
2019-06-27T17:31:54.289Z,8.78
2019-06-27T17:34:24.073Z,8.95
2019-06-27T17:36:58.157Z,10.00
2019-06-27T17:39:27.874Z,6.50
2019-06-27T17:41:57.256Z,6.72
2019-06-27T17:44:26.731Z,10.13
2019-06-27T17:46:56.419Z,6.37
2019-06-27T17:49:26.919Z,22.65
2019-06-27T17:51:56.706Z,17.50
2019-06-27T17:54:26.199Z,6.97
2019-06-27T17:56:55.688Z,5.92
2019-06-27T17:59:25.617Z,12.50
2019-06-27T18:01:55.062Z,7.67
2019-06-27T18:04:24.548Z,7.12
2019-06-27T18:06:54.629Z,8.52
2019-06-27T18:09:24.624Z,5.60
2019-06-27T18:11:54.924Z,4.75
2019-06-27T18:14:24.838Z,4.58
2019-06-27T18:16:55.333Z,4.50
2019-06-27T18:19:24.866Z,6.80
2019-06-27T18:21:54.887Z,10.98
2019-06-27T18:24:24.933Z,4.90
2019-06-27T18:26:54.880Z,5.83
2019-06-27T18:29:25.027Z,9.10
2019-06-27T18:31:55.019Z,6.75
2019-06-27T18:34:27.842Z,7.60
2019-06-27T18:36:57.232Z,7.50
2019-06-27T18:39:26.764Z,8.40
2019-06-27T18:41:56.166Z,5.65
2019-06-27T18:44:25.605Z,6.37
2019-06-27T18:46:55.189Z,5.45
2019-06-27T18:49:25.200Z,7.03
2019-06-27T18:51:55.206Z,8.53
2019-06-27T18:54:25.328Z,4.95
2019-06-27T18:56:55.399Z,8.60
2019-06-27T18:59:25.362Z,16.97
2019-06-27T19:01:55.559Z,6.45
2019-06-27T19:04:25.526Z,5.96
2019-06-27T19:06:57.768Z,10.23
2019-06-27T19:09:27.186Z,5.65
2019-06-27T19:11:56.638Z,8.53
2019-06-27T19:14:26.092Z,5.40
2019-06-27T19:16:55.649Z,4.50
2019-06-27T19:19:28.154Z,8.53
2019-06-27T19:22:22.410Z,5.50
2019-06-27T19:25:03.920Z,6.35
2019-06-27T19:27:34.601Z,4.62
2019-06-27T19:30:04.509Z,3.27
2019-06-27T19:32:34.100Z,8.23
2019-06-27T19:35:03.419Z,6.03
2019-06-27T19:37:32.955Z,4.95
2019-06-27T19:40:02.444Z,4.60
2019-06-27T19:42:31.865Z,4.37
2019-06-27T19:45:01.274Z,8.87
2019-06-27T19:47:30.634Z,3.92
2019-06-27T19:50:00.065Z,5.87
2019-06-27T19:52:31.790Z,5.53
2019-06-27T19:55:01.220Z,4.30
2019-06-27T19:57:32.247Z,4.10
2019-06-27T20:00:01.679Z,4.15
2019-06-27T20:02:31.110Z,7.07
2019-06-27T20:05:00.490Z,4.00
2019-06-27T20:07:29.870Z,6.10
2019-06-27T20:09:59.246Z,5.47
2019-06-27T20:12:28.678Z,5.47
2019-06-27T20:14:58.110Z,7.07
2019-06-27T20:17:27.440Z,2.80
2019-06-27T20:19:56.840Z,3.47
2019-06-27T20:22:26.295Z,4.60
2019-06-27T20:24:56.445Z,4.95
2019-06-27T20:27:26.474Z,3.02
2019-06-27T20:29:56.513Z,3.17
2019-06-27T20:32:26.415Z,3.10
2019-06-27T20:34:56.469Z,4.43
2019-06-27T20:37:27.192Z,4.57
2019-06-27T20:39:56.807Z,4.50
2019-06-27T20:42:26.535Z,3.03
2019-06-27T20:44:56.524Z,4.53
2019-06-27T20:47:26.654Z,3.80
2019-06-27T20:49:56.603Z,3.27
2019-06-27T20:52:26.587Z,2.57
2019-06-27T20:54:58.959Z,4.30
2019-06-27T20:57:28.447Z,6.33
2019-06-27T20:59:57.874Z,5.30
2019-06-27T21:02:27.367Z,5.13
2019-06-27T21:04:56.859Z,7.07
2019-06-27T21:07:26.939Z,8.45
2019-06-27T21:09:56.906Z,10.43
2019-06-27T21:12:27.797Z,5.93
2019-06-27T21:14:57.266Z,9.93
2019-06-27T21:17:27.053Z,6.47
2019-06-27T21:19:57.031Z,4.80
2019-06-27T21:22:27.385Z,4.80
2019-06-27T21:24:57.207Z,11.10
2019-06-27T21:27:27.490Z,5.33
2019-06-27T21:29:57.159Z,11.23
2019-06-27T21:32:31.798Z,8.15
2019-06-27T21:34:58.447Z,8.60
2019-06-27T21:37:27.802Z,8.90
2019-06-27T21:39:57.313Z,7.23
2019-06-27T21:42:27.264Z,10.47
2019-06-27T21:44:57.497Z,9.43
2019-06-27T21:47:27.654Z,8.15
2019-06-27T21:49:57.523Z,5.73
2019-06-27T21:52:27.485Z,6.00
2019-06-27T21:54:57.572Z,9.50
2019-06-27T21:57:27.566Z,8.30
2019-06-27T21:59:57.677Z,7.15
2019-06-27T22:02:27.703Z,10.90
2019-06-27T22:04:57.659Z,9.33
2019-06-27T22:07:27.735Z,10.53
2019-06-27T22:09:57.692Z,7.33
2019-06-27T22:12:27.752Z,13.03
2019-06-27T22:14:57.169Z,9.57
2019-06-27T22:17:26.548Z,8.07
2019-06-27T22:19:55.933Z,7.83
2019-06-27T22:22:25.454Z,10.73
2019-06-27T22:24:54.833Z,10.47
2019-06-27T22:27:24.238Z,6.87
2019-06-27T22:29:53.655Z,10.30
2019-06-27T22:32:23.072Z,7.13
2019-06-27T22:34:52.452Z,8.00
2019-06-27T22:37:26.692Z,6.97
2019-06-27T22:40:13.752Z,8.83
2019-06-27T22:43:04.244Z,7.80
2019-06-27T22:45:49.778Z,9.50
2019-06-27T22:48:18.636Z,7.43
2019-06-27T22:51:10.969Z,10.50
2019-06-27T22:54:02.246Z,10.30
2019-06-27T22:56:31.763Z,6.73
2019-06-27T22:59:01.142Z,7.70
2019-06-27T23:01:30.517Z,9.67
2019-06-27T23:03:59.882Z,6.70
2019-06-27T23:06:29.647Z,5.67
2019-06-27T23:08:59.534Z,14.38
2019-06-27T23:11:29.525Z,13.83
2019-06-27T23:13:59.603Z,6.95
2019-06-27T23:16:29.702Z,7.10
2019-06-27T23:18:59.673Z,7.87
2019-06-27T23:21:29.597Z,6.87
2019-06-27T23:23:59.803Z,12.60
2019-06-27T23:26:29.764Z,8.85
2019-06-27T23:29:02.033Z,7.03
2019-06-27T23:31:31.487Z,9.40
2019-06-27T23:34:00.863Z,13.90
2019-06-27T23:36:30.243Z,7.93
2019-06-27T23:38:59.839Z,6.77
2019-06-27T23:41:29.908Z,12.07
2019-06-27T23:43:59.909Z,9.10
2019-06-27T23:46:40.826Z,8.30
2019-06-27T23:49:10.776Z,8.93
2019-06-27T23:51:40.623Z,11.53
2019-06-27T23:54:09.982Z,8.30
2019-06-27T23:56:39.337Z,12.90
2019-06-27T23:59:08.806Z,7.80
